createdAt,value
2018-08-22T00:02:30.318Z,6.17
2018-08-22T00:05:09.454Z,7.20
2018-08-22T00:07:44.985Z,7.20
2018-08-22T00:10:19.879Z,6.63
2018-08-22T00:12:56.068Z,7.07
2018-08-22T00:15:31.441Z,6.80
2018-08-22T00:18:06.982Z,7.23
2018-08-22T00:20:43.035Z,7.67
2018-08-22T00:23:18.690Z,7.07
2018-08-22T00:25:54.026Z,7.63
2018-08-22T00:28:29.864Z,7.97
2018-08-22T00:31:05.868Z,7.20
2018-08-22T00:33:41.974Z,7.00
2018-08-22T00:36:18.060Z,7.23
2018-08-22T00:38:53.554Z,7.40
2018-08-22T00:41:29.641Z,7.53
2018-08-22T00:44:08.362Z,8.20
2018-08-22T00:46:43.905Z,7.63
2018-08-22T00:49:19.880Z,7.37
2018-08-22T00:51:55.824Z,7.47
2018-08-22T00:54:30.788Z,7.60
2018-08-22T00:57:07.928Z,7.43
2018-08-22T00:59:43.759Z,8.13
2018-08-22T01:02:19.757Z,7.43
2018-08-22T01:04:54.046Z,7.97
2018-08-22T01:07:30.106Z,7.87
2018-08-22T01:10:06.562Z,8.30
2018-08-22T01:12:43.366Z,7.93
2018-08-22T01:15:17.890Z,7.60
2018-08-22T01:17:54.845Z,7.73
2018-08-22T01:20:30.295Z,7.70
2018-08-22T01:23:05.974Z,7.97
2018-08-22T01:25:41.303Z,8.00
2018-08-22T01:28:16.617Z,7.90
2018-08-22T01:30:51.297Z,8.00
2018-08-22T01:33:26.426Z,7.80
2018-08-22T01:36:00.681Z,8.20
2018-08-22T01:38:35.224Z,7.57
2018-08-22T01:41:10.148Z,7.93
2018-08-22T01:43:44.888Z,7.50
2018-08-22T01:46:19.704Z,8.20
2018-08-22T01:48:54.692Z,7.70
2018-08-22T01:51:29.106Z,7.53
2018-08-22T01:54:04.380Z,8.00
2018-08-22T01:56:38.764Z,7.53
2018-08-22T01:59:13.642Z,7.57
2018-08-22T02:01:48.548Z,7.93
2018-08-22T02:04:23.365Z,7.43
2018-08-22T02:06:58.205Z,7.77
2018-08-22T02:09:33.364Z,7.60
2018-08-22T02:12:08.006Z,7.47
2018-08-22T02:14:43.548Z,8.13
2018-08-22T02:17:18.761Z,7.70
2018-08-22T02:19:57.078Z,7.80
2018-08-22T02:22:32.135Z,8.10
2018-08-22T02:25:07.556Z,7.97
2018-08-22T02:27:42.340Z,7.83
2018-08-22T02:30:16.909Z,7.43
2018-08-22T02:32:51.898Z,7.93
2018-08-22T02:35:26.837Z,7.80
2018-08-22T02:38:01.589Z,8.00
2018-08-22T02:40:37.700Z,8.10
2018-08-22T02:43:13.510Z,8.33
2018-08-22T02:45:48.930Z,7.80
2018-08-22T02:48:25.317Z,7.80
2018-08-22T02:51:01.387Z,7.90
2018-08-22T02:53:36.814Z,8.43
2018-08-22T02:56:12.671Z,8.07
2018-08-22T02:58:48.519Z,7.67
2018-08-22T03:01:24.190Z,7.87
2018-08-22T03:03:59.735Z,8.50
2018-08-22T03:06:35.254Z,7.67
2018-08-22T03:09:11.433Z,8.03
2018-08-22T03:11:47.476Z,7.57
2018-08-22T03:14:22.813Z,8.00
2018-08-22T03:16:58.678Z,7.57
2018-08-22T03:19:35.641Z,8.00
2018-08-22T03:22:09.972Z,8.13
2018-08-22T03:24:45.817Z,7.87
2018-08-22T03:27:21.763Z,8.03
2018-08-22T03:29:57.617Z,8.00
2018-08-22T03:32:33.262Z,8.00
2018-08-22T03:35:11.705Z,8.10
2018-08-22T03:37:47.965Z,8.13
2018-08-22T03:40:26.779Z,7.73
2018-08-22T03:43:01.289Z,7.73
2018-08-22T03:45:39.714Z,8.53
2018-08-22T03:48:18.023Z,8.17
2018-08-22T03:50:53.970Z,8.20
2018-08-22T03:53:29.539Z,7.73
2018-08-22T03:56:05.492Z,8.07
2018-08-22T03:58:42.957Z,7.90
2018-08-22T04:01:19.943Z,7.53
2018-08-22T04:03:56.613Z,8.37
2018-08-22T04:06:32.874Z,8.20
2018-08-22T04:09:09.437Z,8.40
2018-08-22T04:11:46.030Z,8.07
2018-08-22T04:14:22.342Z,8.90
2018-08-22T04:16:58.334Z,8.30
2018-08-22T04:19:34.421Z,8.50
2018-08-22T04:22:11.672Z,9.10
2018-08-22T04:24:48.973Z,8.60
2018-08-22T04:27:26.928Z,8.37
2018-08-22T04:30:03.636Z,9.27
2018-08-22T04:32:42.460Z,8.07
2018-08-22T04:35:18.724Z,8.03
2018-08-22T04:37:56.311Z,9.23
2018-08-22T04:40:31.662Z,8.47
2018-08-22T04:43:10.371Z,8.20
2018-08-22T04:45:46.456Z,8.63
2018-08-22T04:48:23.825Z,8.80
2018-08-22T04:50:59.593Z,8.60
2018-08-22T04:53:35.835Z,8.87
2018-08-22T04:56:12.292Z,8.67
2018-08-22T04:58:46.620Z,8.57
2018-08-22T05:01:24.409Z,8.87
2018-08-22T05:04:02.517Z,8.70
2018-08-22T05:06:40.021Z,8.10
2018-08-22T05:09:16.372Z,9.20
2018-08-22T05:11:51.920Z,8.67
2018-08-22T05:14:27.887Z,8.30
2018-08-22T05:17:04.051Z,8.10
2018-08-22T05:19:40.065Z,8.97
2018-08-22T05:22:15.378Z,9.10
2018-08-22T05:24:51.613Z,9.73
2018-08-22T05:27:28.458Z,9.77
2018-08-22T05:30:04.036Z,9.50
2018-08-22T05:32:42.338Z,9.37
2018-08-22T05:35:20.727Z,8.80
2018-08-22T05:40:15.338Z,9.63
2018-08-22T05:42:53.414Z,9.50
2018-08-22T05:45:30.020Z,9.63
2018-08-22T05:48:07.322Z,9.60
2018-08-22T05:50:43.054Z,9.23
2018-08-22T05:53:18.596Z,9.57
2018-08-22T05:55:54.866Z,9.23
2018-08-22T05:58:30.810Z,9.60
2018-08-22T06:01:07.199Z,10.47
2018-08-22T06:03:42.945Z,11.17
2018-08-22T06:06:18.377Z,11.37
2018-08-22T06:08:54.840Z,10.63
2018-08-22T06:11:31.097Z,11.90
2018-08-22T06:14:07.888Z,11.20
2018-08-22T06:16:43.950Z,10.93
2018-08-22T06:19:20.201Z,11.77
2018-08-22T06:21:56.766Z,11.30
2018-08-22T06:24:32.121Z,10.47
2018-08-22T06:27:08.890Z,11.00
2018-08-22T06:29:45.147Z,11.63
2018-08-22T06:32:21.436Z,10.80
2018-08-22T06:34:57.357Z,10.97
2018-08-22T06:37:33.434Z,11.23
2018-08-22T06:40:10.295Z,11.00
2018-08-22T06:42:46.065Z,11.77
2018-08-22T06:45:23.942Z,10.40
2018-08-22T06:47:59.904Z,11.80
2018-08-22T06:50:37.286Z,10.00
2018-08-22T06:53:12.825Z,10.67
2018-08-22T06:55:48.154Z,10.83
2018-08-22T06:58:24.431Z,10.03
2018-08-22T07:01:00.800Z,9.23
2018-08-22T07:03:37.884Z,9.87
2018-08-22T07:06:13.736Z,9.77
2018-08-22T07:08:50.099Z,10.00
2018-08-22T07:11:26.886Z,9.53
2018-08-22T07:14:06.555Z,9.63
2018-08-22T07:16:44.102Z,8.67
2018-08-22T07:19:19.087Z,10.43
2018-08-22T07:21:55.278Z,10.50
2018-08-22T07:24:32.387Z,10.03
2018-08-22T07:27:08.486Z,9.80
2018-08-22T07:29:44.177Z,9.57
2018-08-22T07:32:20.059Z,9.23
2018-08-22T07:34:57.329Z,9.00
2018-08-22T07:37:32.784Z,9.00
2018-08-22T07:40:13.209Z,8.70
2018-08-22T07:42:48.685Z,8.63
2018-08-22T07:45:25.968Z,9.57
2018-08-22T07:48:02.943Z,8.37
2018-08-22T07:50:43.932Z,8.70
2018-08-22T07:53:20.852Z,8.07
2018-08-22T07:55:57.783Z,7.27
2018-08-22T07:58:35.053Z,7.70
2018-08-22T08:01:12.652Z,7.87
2018-08-22T08:03:47.890Z,7.90
2018-08-22T08:06:24.368Z,7.83
2018-08-22T08:08:59.690Z,7.53
2018-08-22T08:11:37.301Z,7.70
2018-08-22T08:14:12.936Z,6.93
2018-08-22T08:16:48.323Z,7.30
2018-08-22T08:19:24.960Z,7.17
2018-08-22T08:22:01.528Z,7.23
2018-08-22T08:24:40.046Z,7.23
2018-08-22T08:27:18.667Z,7.40
2018-08-22T08:29:57.474Z,7.03
2018-08-22T08:32:33.635Z,7.60
2018-08-22T08:35:11.987Z,7.53
2018-08-22T08:37:47.387Z,6.80
2018-08-22T08:40:26.838Z,6.37
2018-08-22T08:43:03.927Z,7.20
2018-08-22T08:45:41.078Z,6.97
2018-08-22T08:48:17.961Z,7.20
2018-08-22T08:50:55.882Z,7.27
2018-08-22T08:53:31.927Z,6.43
2018-08-22T08:56:10.229Z,6.80
2018-08-22T08:58:47.824Z,7.67
2018-08-22T09:01:24.188Z,7.47
2018-08-22T09:04:00.526Z,7.80
2018-08-22T09:06:38.375Z,8.10
2018-08-22T09:09:15.558Z,7.20
2018-08-22T09:12:01.736Z,7.60
2018-08-22T09:14:41.462Z,7.83
2018-08-22T09:17:20.607Z,8.30
2018-08-22T09:20:00.661Z,7.47
2018-08-22T09:22:37.213Z,7.03
2018-08-22T09:25:13.301Z,7.20
2018-08-22T09:27:49.335Z,6.80
2018-08-22T09:30:25.186Z,7.07
2018-08-22T09:33:02.287Z,7.13
2018-08-22T09:35:37.382Z,7.33
2018-08-22T09:38:12.043Z,7.03
2018-08-22T09:40:48.209Z,6.80
2018-08-22T09:43:27.416Z,7.37
2018-08-22T09:46:06.243Z,6.83
2018-08-22T09:48:45.784Z,7.00
2018-08-22T09:51:24.612Z,6.87
2018-08-22T09:54:01.177Z,6.90
2018-08-22T09:56:39.695Z,7.13
2018-08-22T09:59:16.049Z,7.20
2018-08-22T10:01:54.068Z,7.30
2018-08-22T10:04:30.737Z,6.63
2018-08-22T10:07:07.773Z,7.23
2018-08-22T10:09:45.318Z,7.27
2018-08-22T10:12:25.066Z,7.20
2018-08-22T10:15:02.246Z,7.57
2018-08-22T10:17:40.755Z,7.73
2018-08-22T10:20:17.117Z,7.23
2018-08-22T10:22:53.993Z,7.77
2018-08-22T10:25:29.528Z,7.87
2018-08-22T10:28:06.177Z,7.27
2018-08-22T10:30:43.480Z,7.87
2018-08-22T10:33:18.823Z,7.70
2018-08-22T10:35:55.801Z,7.60
2018-08-22T10:38:32.282Z,7.63
2018-08-22T10:41:10.175Z,8.40
2018-08-22T10:43:46.896Z,8.20
2018-08-22T10:46:25.362Z,8.30
2018-08-22T10:49:03.151Z,7.60
2018-08-22T10:51:40.548Z,8.63
2018-08-22T10:54:21.420Z,7.40
2018-08-22T10:57:02.466Z,8.27
2018-08-22T10:59:38.644Z,8.10
2018-08-22T11:02:15.121Z,8.60
2018-08-22T11:04:49.516Z,8.20
2018-08-22T11:07:23.841Z,8.03
2018-08-22T11:09:58.477Z,7.70
2018-08-22T11:12:33.090Z,8.47
2018-08-22T11:15:08.447Z,8.57
2018-08-22T11:17:42.746Z,7.83
2018-08-22T11:20:17.595Z,7.73
2018-08-22T11:23:03.298Z,7.30
2018-08-22T11:25:49.138Z,7.80
2018-08-22T11:28:35.656Z,7.90
2018-08-22T11:31:24.509Z,7.77
2018-08-22T11:34:11.521Z,7.70
2018-08-22T11:36:59.033Z,7.53
2018-08-22T11:39:35.892Z,7.70
2018-08-22T11:42:11.589Z,7.63
2018-08-22T11:44:47.616Z,7.73
2018-08-22T11:47:26.349Z,7.70
2018-08-22T11:52:47.982Z,8.20
2018-08-22T11:55:24.436Z,7.60
2018-08-22T11:58:02.263Z,7.67
2018-08-22T12:00:40.064Z,8.07
2018-08-22T12:03:17.139Z,7.70
2018-08-22T12:05:54.325Z,7.90
2018-08-22T12:08:30.973Z,8.10
2018-08-22T12:11:06.732Z,7.77
2018-08-22T12:13:42.595Z,8.40
2018-08-22T12:16:19.785Z,7.80
2018-08-22T12:18:55.891Z,8.63
2018-08-22T12:21:32.383Z,8.23
2018-08-22T12:24:08.614Z,8.10
2018-08-22T12:26:43.977Z,8.10
2018-08-22T12:29:21.386Z,7.73
2018-08-22T12:31:57.544Z,8.13
2018-08-22T12:34:35.337Z,8.10
2018-08-22T12:37:12.235Z,8.13
2018-08-22T12:39:47.664Z,8.33
2018-08-22T12:42:25.764Z,8.20
2018-08-22T12:45:01.423Z,7.80
2018-08-22T12:47:39.529Z,7.97
2018-08-22T12:50:15.411Z,7.83
2018-08-22T12:52:53.168Z,8.07
2018-08-22T12:55:29.136Z,7.67
2018-08-22T12:58:04.479Z,8.03
2018-08-22T13:00:42.486Z,7.40
2018-08-22T13:03:17.523Z,7.40
2018-08-22T13:05:56.327Z,7.70
2018-08-22T13:08:32.377Z,7.57
2018-08-22T13:11:08.915Z,7.17
2018-08-22T13:13:44.393Z,7.73
2018-08-22T13:16:20.164Z,7.83
2018-08-22T13:18:58.452Z,7.87
2018-08-22T13:21:33.689Z,8.07
2018-08-22T13:24:10.050Z,7.93
2018-08-22T13:26:46.010Z,7.70
2018-08-22T13:29:22.281Z,8.27
2018-08-22T13:31:58.433Z,7.90
2018-08-22T13:34:33.784Z,8.30
2018-08-22T13:37:10.667Z,7.67
2018-08-22T13:39:46.331Z,7.57
2018-08-22T13:42:22.993Z,7.57
2018-08-22T13:44:58.917Z,7.17
2018-08-22T13:47:34.524Z,7.73
2018-08-22T13:50:12.175Z,8.00
2018-08-22T13:52:47.805Z,7.20
2018-08-22T13:55:26.116Z,7.60
2018-08-22T13:58:02.172Z,7.97
2018-08-22T14:00:38.660Z,8.00
2018-08-22T14:03:15.417Z,7.73
2018-08-22T14:05:50.570Z,7.50
2018-08-22T14:08:27.966Z,7.47
2018-08-22T14:11:03.811Z,7.80
2018-08-22T14:13:40.569Z,7.80
2018-08-22T14:16:16.623Z,7.83
2018-08-22T14:18:53.510Z,8.00
2018-08-22T14:21:29.993Z,8.03
2018-08-22T14:24:08.902Z,7.90
2018-08-22T14:26:45.171Z,8.17
2018-08-22T14:29:22.036Z,7.63
2018-08-22T14:31:57.689Z,7.90
2018-08-22T14:34:33.850Z,7.40
2018-08-22T14:37:12.164Z,7.57
2018-08-22T14:39:47.793Z,7.90
2018-08-22T14:42:24.439Z,7.63
2018-08-22T14:44:59.809Z,7.70
2018-08-22T14:47:36.941Z,7.50
2018-08-22T14:50:14.579Z,7.63
2018-08-22T14:52:49.928Z,7.33
2018-08-22T14:55:27.746Z,7.40
2018-08-22T14:58:04.420Z,7.80
2018-08-22T15:00:41.008Z,7.80
2018-08-22T15:03:18.000Z,7.70
2018-08-22T15:05:53.497Z,8.00
2018-08-22T15:08:29.626Z,7.53
2018-08-22T15:11:04.798Z,7.80
2018-08-22T15:13:45.422Z,8.20
2018-08-22T15:16:22.436Z,8.10
2018-08-22T15:18:58.097Z,7.77
2018-08-22T15:21:36.502Z,8.13
2018-08-22T15:24:13.576Z,7.80
2018-08-22T15:26:51.595Z,7.80
2018-08-22T15:29:27.848Z,8.43
2018-08-22T15:32:03.494Z,10.77
2018-08-22T15:34:49.798Z,9.03
2018-08-22T15:37:26.547Z,8.30
2018-08-22T15:40:03.538Z,8.20
2018-08-22T15:42:42.764Z,8.30
2018-08-22T15:45:19.228Z,8.17
2018-08-22T15:47:56.408Z,8.97
2018-08-22T15:50:32.587Z,9.70
2018-08-22T15:53:09.934Z,9.60
2018-08-22T15:55:44.889Z,10.97
2018-08-22T15:58:20.049Z,9.80
2018-08-22T16:00:58.247Z,8.70
2018-08-22T16:03:33.667Z,7.70
2018-08-22T16:06:09.116Z,8.27
2018-08-22T16:08:45.840Z,9.57
2018-08-22T16:11:22.157Z,7.83
2018-08-22T16:13:58.009Z,8.30
2018-08-22T16:16:34.209Z,10.67
2018-08-22T16:19:10.830Z,12.03
2018-08-22T16:21:46.598Z,11.77
2018-08-22T16:24:25.300Z,12.30
2018-08-22T16:27:00.098Z,12.37
2018-08-22T16:29:34.916Z,12.77
2018-08-22T16:32:09.594Z,12.00
2018-08-22T16:34:44.615Z,10.53
2018-08-22T16:37:23.336Z,11.00
2018-08-22T16:39:57.991Z,12.40
2018-08-22T16:42:37.678Z,13.47
2018-08-22T16:45:13.187Z,10.40
2018-08-22T16:47:48.082Z,11.30
2018-08-22T16:52:47.937Z,11.93
2018-08-22T16:55:24.578Z,11.50
2018-08-22T16:58:00.359Z,11.00
2018-08-22T17:00:41.635Z,10.90
2018-08-22T17:03:16.607Z,10.70
2018-08-22T17:05:55.074Z,10.07
2018-08-22T17:08:30.336Z,9.53
2018-08-22T17:11:06.240Z,10.90
2018-08-22T17:13:52.385Z,11.70
2018-08-22T17:16:27.604Z,8.97
2018-08-22T17:19:03.026Z,8.33
2018-08-22T17:21:39.828Z,8.20
2018-08-22T17:24:16.341Z,7.77
2018-08-22T17:26:52.744Z,7.23
2018-08-22T17:29:29.182Z,7.50
2018-08-22T17:32:06.073Z,7.60
2018-08-22T17:34:43.780Z,7.93
2018-08-22T17:37:19.169Z,7.60
2018-08-22T17:39:54.641Z,7.23
2018-08-22T17:42:29.451Z,8.27
2018-08-22T17:45:04.613Z,7.63
2018-08-22T17:47:40.093Z,7.80
2018-08-22T17:50:15.068Z,7.80
2018-08-22T17:52:49.956Z,8.17
2018-08-22T17:55:24.988Z,7.50
2018-08-22T17:57:59.763Z,8.27
2018-08-22T18:00:36.053Z,8.33
2018-08-22T18:03:13.436Z,8.50
2018-08-22T18:05:48.998Z,8.23
2018-08-22T18:08:25.545Z,8.10
2018-08-22T18:11:01.915Z,8.87
2018-08-22T18:13:40.440Z,8.80
2018-08-22T18:16:17.824Z,8.47
2018-08-22T18:18:55.856Z,9.23
2018-08-22T18:21:38.539Z,9.27
2018-08-22T18:24:15.633Z,8.93
2018-08-22T18:26:51.431Z,9.47
2018-08-22T18:29:27.339Z,9.43
2018-08-22T18:32:02.693Z,9.87
2018-08-22T18:34:51.753Z,10.47
2018-08-22T18:37:29.016Z,10.03
2018-08-22T18:40:16.650Z,9.97
2018-08-22T18:42:57.519Z,9.43
2018-08-22T18:45:38.392Z,9.13
2018-08-22T18:48:21.424Z,9.83
2018-08-22T18:51:09.536Z,10.60
2018-08-22T18:53:46.754Z,11.80
2018-08-22T18:56:25.127Z,10.10
2018-08-22T18:59:33.167Z,10.80
2018-08-22T19:02:09.195Z,10.13
2018-08-22T19:04:45.519Z,9.90
2018-08-22T19:07:22.108Z,10.80
2018-08-22T19:09:58.658Z,10.53
2018-08-22T19:12:35.416Z,8.97
2018-08-22T19:15:11.352Z,10.43
2018-08-22T19:17:46.246Z,10.00
2018-08-22T19:20:24.695Z,10.73
2018-08-22T19:23:02.266Z,9.43
2018-08-22T19:25:45.647Z,10.33
2018-08-22T19:28:23.410Z,10.40
2018-08-22T19:30:59.565Z,9.83
2018-08-22T19:33:35.639Z,10.23
2018-08-22T19:36:11.486Z,10.37
2018-08-22T19:38:47.968Z,9.97
2018-08-22T19:41:27.312Z,11.27
2018-08-22T19:44:02.910Z,10.90
2018-08-22T19:46:38.357Z,11.73
2018-08-22T19:49:14.102Z,10.07
2018-08-22T19:51:50.377Z,11.33
2018-08-22T19:54:26.450Z,9.73
2018-08-22T19:57:00.959Z,10.60
2018-08-22T19:59:36.528Z,10.80
2018-08-22T20:02:12.159Z,10.40
2018-08-22T20:04:48.109Z,10.27
2018-08-22T20:07:25.518Z,10.00
2018-08-22T20:10:02.102Z,10.17
2018-08-22T20:12:49.292Z,10.67
2018-08-22T20:15:27.376Z,11.77
2018-08-22T20:18:03.853Z,10.23
2018-08-22T20:20:39.605Z,9.67
2018-08-22T20:23:17.266Z,10.40
2018-08-22T20:25:54.795Z,10.43
2018-08-22T20:28:31.920Z,10.93
2018-08-22T20:31:13.055Z,11.43
2018-08-22T20:34:00.407Z,10.53
2018-08-22T20:36:35.463Z,10.57
2018-08-22T20:39:12.852Z,10.00
2018-08-22T20:41:49.622Z,11.07
2018-08-22T20:44:23.992Z,10.77
2018-08-22T20:46:58.776Z,11.50
2018-08-22T20:49:34.138Z,12.13
2018-08-22T20:52:09.670Z,12.87
2018-08-22T20:54:47.345Z,12.03
2018-08-22T20:57:23.233Z,12.20
2018-08-22T20:59:58.276Z,11.20
2018-08-22T21:02:34.020Z,11.73
2018-08-22T21:05:09.482Z,11.93
2018-08-22T21:07:45.870Z,11.27
2018-08-22T21:10:21.027Z,11.73
2018-08-22T21:12:55.548Z,12.27
2018-08-22T21:15:31.182Z,11.63
2018-08-22T21:18:08.825Z,11.17
2018-08-22T21:20:43.500Z,12.30
2018-08-22T21:23:18.197Z,11.90
2018-08-22T21:25:52.653Z,12.40
2018-08-22T21:28:32.639Z,13.93
2018-08-22T21:31:07.897Z,12.93
2018-08-22T21:33:42.612Z,13.67
2018-08-22T21:36:17.702Z,12.43
2018-08-22T21:38:52.937Z,12.33
2018-08-22T21:41:28.414Z,12.53
2018-08-22T21:44:03.248Z,13.53
2018-08-22T21:46:38.911Z,13.73
2018-08-22T21:49:22.192Z,13.10
2018-08-22T21:51:59.742Z,13.03
2018-08-22T21:54:34.965Z,12.57
2018-08-22T21:57:10.128Z,13.40
2018-08-22T21:59:44.674Z,11.70
2018-08-22T22:02:20.163Z,12.23
2018-08-22T22:04:55.167Z,12.47
2018-08-22T22:07:31.653Z,13.57
2018-08-22T22:10:11.664Z,14.70
2018-08-22T22:12:47.346Z,14.43
2018-08-22T22:15:27.582Z,15.07
2018-08-22T22:18:02.412Z,13.40
2018-08-22T22:20:37.801Z,13.57
2018-08-22T22:23:13.385Z,14.77
2018-08-22T22:25:48.452Z,15.13
2018-08-22T22:28:29.439Z,14.47
2018-08-22T22:31:07.858Z,14.70
2018-08-22T22:33:51.890Z,15.00
2018-08-22T22:36:28.965Z,14.13
2018-08-22T22:39:04.663Z,14.10
2018-08-22T22:41:41.531Z,13.40
2018-08-22T22:44:17.878Z,12.63
2018-08-22T22:46:53.076Z,14.27
2018-08-22T22:49:29.064Z,12.90
2018-08-22T22:52:17.198Z,13.87
2018-08-22T22:54:56.239Z,14.27
2018-08-22T22:57:33.917Z,14.57
2018-08-22T23:00:13.300Z,12.67
2018-08-22T23:02:54.388Z,13.73
2018-08-22T23:05:32.227Z,13.60
2018-08-22T23:08:10.849Z,13.30
2018-08-22T23:10:48.030Z,13.40
2018-08-22T23:13:29.162Z,14.90
2018-08-22T23:16:04.658Z,15.50
2018-08-22T23:18:41.938Z,13.97
2018-08-22T23:21:18.318Z,14.13
2018-08-22T23:23:56.002Z,13.37
2018-08-22T23:26:33.393Z,14.40
2018-08-22T23:29:14.081Z,14.40
2018-08-22T23:31:51.356Z,13.47
2018-08-22T23:34:27.717Z,15.07
2018-08-22T23:37:03.413Z,14.17
2018-08-22T23:39:40.524Z,13.53
2018-08-22T23:42:16.793Z,14.70
2018-08-22T23:44:54.283Z,14.47
2018-08-22T23:47:30.775Z,15.40
2018-08-22T23:50:05.785Z,14.30
2018-08-22T23:52:47.885Z,14.57
2018-08-22T23:55:26.300Z,13.67
2018-08-22T23:58:02.138Z,13.43
